Time;durP1;ratioP1;P1;durP2;ratioP2;P2;SDS_P1;SDS_P2;PMS_P1;PMS_P2;Temp;Humidity;BMP_temperature;BMP_pressure;BME280_temperature;BME280_humidity;BME280_pressure;Samples;Min_cycle;Max_cycle;Signal;HPM_P1;HPM_P2
2022/10/15 00:02:26;;;;;;;46.00;22.90;;;;;;;9.62;87.82;100036.04;103489;1286;22484;-66
2022/10/15 00:04:57;;;;;;;43.70;22.00;;;;;;;9.64;87.80;100036.46;103552;1281;22541;-69
2022/10/15 00:07:31;;;;;;;46.70;22.20;;;;;;;9.66;87.94;100031.49;103783;1281;24084;-67
2022/10/15 00:10:02;;;;;;;44.10;22.20;;;;;;;9.68;88.10;100028.51;103599;1283;22587;-67
2022/10/15 00:12:33;;;;;;;46.00;22.50;;;;;;;9.70;88.05;100026.16;103306;1282;24295;-67
2022/10/15 00:15:06;;;;;;;41.60;21.20;;;;;;;9.72;88.34;100029.58;103298;1306;24051;-66
2022/10/15 00:17:37;;;;;;;45.30;23.60;;;;;;;9.74;88.28;100027.90;103501;1306;24323;-67
2022/10/15 00:20:12;;;;;;;44.60;22.20;;;;;;;9.74;88.48;100027.86;103425;1280;25922;-67
2022/10/15 00:22:44;;;;;;;43.00;21.60;;;;;;;9.75;88.33;100026.00;103492;1306;22590;-67
2022/10/15 00:25:15;;;;;;;43.70;22.60;;;;;;;9.75;88.50;100025.90;103499;1281;22476;-68
2022/10/15 00:27:47;;;;;;;47.30;23.90;;;;;;;9.74;88.59;100025.22;103402;1304;24305;-67
2022/10/15 00:30:18;;;;;;;47.30;23.30;;;;;;;9.74;88.20;100020.05;103498;1283;22602;-66
2022/10/15 00:32:49;;;;;;;46.90;23.40;;;;;;;9.74;88.27;100014.17;103452;1280;23365;-67
2022/10/15 00:35:21;;;;;;;53.10;24.90;;;;;;;9.74;88.25;100008.55;103485;1285;22487;-67
2022/10/15 00:37:52;;;;;;;46.60;25.00;;;;;;;9.72;88.19;100003.60;103551;1306;23242;-66
2022/10/15 00:40:24;;;;;;;46.20;22.30;;;;;;;9.71;88.27;100005.75;103442;1275;22479;-66
2022/10/15 00:42:55;;;;;;;45.10;23.10;;;;;;;9.70;88.33;100008.52;103422;1306;22590;-66
2022/10/15 00:45:27;;;;;;;40.60;22.20;;;;;;;9.68;88.38;100000.94;103465;1281;26002;-66
2022/10/15 00:47:58;;;;;;;49.90;25.20;;;;;;;9.67;88.20;99998.04;103430;1298;24321;-66
2022/10/15 00:50:30;;;;;;;48.10;23.90;;;;;;;9.67;88.23;99996.09;103485;1296;22726;-66
2022/10/15 00:53:06;;;;;;;48.50;23.70;;;;;;;9.66;88.17;99994.00;103440;1283;22471;-66
2022/10/15 00:55:40;;;;;;;44.50;22.00;;;;;;;9.65;88.04;99993.88;103412;1291;22461;-66
2022/10/15 00:58:16;;;;;;;44.10;22.80;;;;;;;9.63;88.05;99996.90;103586;1281;22480;-67
2022/10/15 01:00:48;;;;;;;43.90;21.70;;;;;;;9.62;88.03;99998.48;103335;1286;25393;-65
2022/10/15 01:03:19;;;;;;;44.60;22.90;;;;;;;9.60;87.99;99994.30;103283;1306;25926;-66
2022/10/15 01:05:52;;;;;;;47.70;25.00;;;;;;;9.59;88.01;99996.76;103499;1285;24972;-67
2022/10/15 01:08:23;;;;;;;46.70;23.20;;;;;;;9.57;88.00;99992.16;103486;1298;22478;-67
2022/10/15 01:11:03;;;;;;;39.80;20.80;;;;;;;9.54;87.90;99981.21;103504;1306;22492;-67
2022/10/15 01:13:40;;;;;;;49.50;24.10;;;;;;;9.52;87.98;99973.71;103381;1290;22518;-66
2022/10/15 01:16:19;;;;;;;43.20;22.00;;;;;;;9.49;88.05;99975.23;103270;1305;22456;-66
2022/10/15 01:18:57;;;;;;;43.70;22.80;;;;;;;9.45;88.00;99979.91;103412;1283;22581;-67
2022/10/15 01:21:35;;;;;;;42.00;21.40;;;;;;;9.42;88.12;99973.59;103154;1298;22458;-66
2022/10/15 01:24:43;;;;;;;44.00;21.80;;;;;;;9.40;88.13;99968.69;103337;1305;25229;-67
2022/10/15 01:27:28;;;;;;;42.90;21.50;;;;;;;9.37;88.23;99962.43;103268;1279;22462;-67
2022/10/15 01:30:31;;;;;;;38.70;19.70;;;;;;;9.34;88.22;99964.31;103304;1282;24427;-66
2022/10/15 01:33:22;;;;;;;42.00;22.30;;;;;;;9.31;88.23;99956.90;103219;1306;22467;-66
2022/10/15 01:35:59;;;;;;;37.20;19.90;;;;;;;9.28;88.22;99948.80;103379;1282;22474;-67
2022/10/15 01:38:43;;;;;;;39.60;19.20;;;;;;;9.26;88.37;99935.75;103097;1283;25463;-67
2022/10/15 01:41:22;;;;;;;38.60;19.10;;;;;;;9.25;88.38;99941.55;103313;1283;22689;-66
2022/10/15 01:44:00;;;;;;;40.90;18.60;;;;;;;9.24;88.56;99945.42;103314;1281;22587;-66
2022/10/15 01:46:38;;;;;;;42.30;19.00;;;;;;;9.23;88.66;99943.95;103501;1275;22511;-67
2022/10/15 01:49:13;;;;;;;38.20;18.00;;;;;;;9.23;88.61;99945.98;103391;1298;25265;-67
2022/10/15 01:51:45;;;;;;;34.10;17.50;;;;;;;9.22;88.59;99940.13;103209;1305;22466;-66
2022/10/15 01:54:19;;;;;;;40.00;18.50;;;;;;;9.22;88.81;99935.19;103146;1282;25460;-66
2022/10/15 01:56:52;;;;;;;38.90;18.20;;;;;;;9.20;88.76;99930.67;103179;1277;22466;-67
2022/10/15 01:59:27;;;;;;;36.30;18.30;;;;;;;9.19;88.99;99925.13;103431;1306;22462;-66
2022/10/15 02:01:59;;;;;;;41.80;18.60;;;;;;;9.19;89.03;99919.03;103449;1304;22552;-66
2022/10/15 02:04:32;;;;;;;35.60;17.70;;;;;;;9.17;89.21;99916.89;103451;1292;24372;-65
2022/10/15 02:07:08;;;;;;;38.80;18.20;;;;;;;9.17;89.11;99918.64;103360;1277;24218;-66
2022/10/15 02:09:50;;;;;;;40.60;19.90;;;;;;;9.16;89.35;99910.18;103490;1306;25496;-66
2022/10/15 02:12:37;;;;;;;39.60;17.30;;;;;;;9.16;89.43;99910.22;103182;1306;22458;-66
2022/10/15 02:15:17;;;;;;;39.40;18.90;;;;;;;9.15;89.56;99905.93;103266;1282;25345;-67
2022/10/15 02:17:58;;;;;;;39.80;19.30;;;;;;;9.14;89.50;99905.69;103026;1285;23725;-66
2022/10/15 02:20:36;;;;;;;42.00;19.50;;;;;;;9.14;89.48;99903.36;103044;1298;22722;-65
2022/10/15 02:23:14;;;;;;;42.70;20.40;;;;;;;9.13;89.49;99900.70;103252;1289;25297;-65
2022/10/15 02:25:47;;;;;;;39.40;19.10;;;;;;;9.13;89.48;99895.02;103225;1305;26285;-66
2022/10/15 02:28:20;;;;;;;37.80;18.80;;;;;;;9.13;89.49;99885.85;102965;1282;22470;-66
2022/10/15 02:30:57;;;;;;;44.20;20.20;;;;;;;9.13;89.43;99886.31;103124;1283;22537;-65
2022/10/15 02:33:29;;;;;;;40.30;18.50;;;;;;;9.13;89.50;99886.01;103304;1283;26620;-66
2022/10/15 02:36:01;;;;;;;44.30;21.00;;;;;;;9.12;89.51;99880.88;103450;1282;24330;-66
2022/10/15 02:38:36;;;;;;;39.60;19.60;;;;;;;9.11;89.63;99883.80;103170;1306;25242;-66
2022/10/15 02:41:10;;;;;;;41.40;19.10;;;;;;;9.11;89.57;99880.75;103401;1281;22606;-66
2022/10/15 02:43:42;;;;;;;37.70;18.20;;;;;;;9.11;89.74;99881.17;103218;1304;22994;-67
2022/10/15 02:46:15;;;;;;;44.70;21.60;;;;;;;9.11;89.70;99874.17;103247;1305;25386;-65
2022/10/15 02:48:46;;;;;;;40.90;19.30;;;;;;;9.11;89.87;99864.95;103159;1306;22521;-66
2022/10/15 02:51:17;;;;;;;48.20;20.60;;;;;;;9.10;89.93;99857.86;103336;1281;22476;-66
2022/10/15 02:53:49;;;;;;;38.00;19.60;;;;;;;9.10;90.08;99858.27;103263;1306;25068;-66
2022/10/15 02:56:20;;;;;;;43.50;20.80;;;;;;;9.09;90.03;99862.84;103477;1282;22472;-66
2022/10/15 02:58:51;;;;;;;38.60;19.30;;;;;;;9.08;90.05;99867.75;103331;1283;22578;-66
2022/10/15 03:01:23;;;;;;;38.10;19.60;;;;;;;9.08;90.29;99870.29;103166;1282;24395;-65
2022/10/15 03:03:55;;;;;;;42.30;20.30;;;;;;;9.07;90.21;99872.06;103230;1306;25384;-66
2022/10/15 03:06:26;;;;;;;40.80;19.20;;;;;;;9.07;90.24;99869.05;103195;1281;22470;-65
2022/10/15 03:08:58;;;;;;;40.40;19.30;;;;;;;9.07;90.21;99869.95;103206;1282;22492;-66
2022/10/15 03:11:29;;;;;;;40.20;19.40;;;;;;;9.07;90.22;99870.91;103037;1282;25232;-65
2022/10/15 03:14:00;;;;;;;41.40;20.50;;;;;;;9.05;90.24;99871.73;103406;1306;22479;-65
2022/10/15 03:16:32;;;;;;;38.30;19.50;;;;;;;9.05;90.20;99862.23;103383;1282;22657;-66
2022/10/15 03:19:03;;;;;;;37.50;18.50;;;;;;;9.05;90.27;99847.52;103053;1306;25453;-65
2022/10/15 03:21:35;;;;;;;38.80;19.00;;;;;;;9.04;90.12;99844.58;103158;1275;25470;-66
2022/10/15 03:24:07;;;;;;;40.90;19.60;;;;;;;9.01;90.28;99840.89;103467;1305;23868;-66
2022/10/15 03:26:39;;;;;;;40.30;20.00;;;;;;;9.01;90.42;99849.02;103450;1278;22474;-65
2022/10/15 03:29:11;;;;;;;43.10;22.00;;;;;;;9.01;90.45;99847.20;103387;1275;22918;-66
2022/10/15 03:31:43;;;;;;;48.30;21.40;;;;;;;9.00;90.78;99848.04;103491;1306;24333;-65
2022/10/15 03:34:15;;;;;;;43.30;20.80;;;;;;;9.01;90.70;99840.20;103259;1282;22587;-65
2022/10/15 03:36:47;;;;;;;42.50;22.50;;;;;;;9.00;90.78;99843.23;103326;1285;22592;-66
2022/10/15 03:39:18;;;;;;;45.90;21.30;;;;;;;9.01;91.09;99839.41;103304;1303;22466;-65
2022/10/15 03:41:53;;;;;;;44.90;22.20;;;;;;;9.01;91.07;99838.13;103424;1284;22484;-66
2022/10/15 03:44:24;;;;;;;47.60;22.10;;;;;;;9.02;91.08;99833.39;103378;1306;24359;-65
2022/10/15 03:46:56;;;;;;;42.40;20.00;;;;;;;9.01;91.12;99827.52;103421;1306;22601;-65
2022/10/15 03:49:27;;;;;;;46.60;22.50;;;;;;;9.01;91.09;99821.64;103542;1277;25471;-67
2022/10/15 03:52:00;;;;;;;49.70;22.00;;;;;;;9.01;91.22;99820.84;103366;1277;22464;-66
2022/10/15 03:54:31;;;;;;;46.50;22.40;;;;;;;9.02;91.30;99820.56;103154;1290;24564;-67
2022/10/15 03:57:03;;;;;;;45.10;22.50;;;;;;;9.04;91.33;99820.29;103234;1292;25347;-65
2022/10/15 03:59:34;;;;;;;45.40;22.80;;;;;;;9.05;91.53;99822.73;103374;1285;23238;-66
2022/10/15 04:02:05;;;;;;;44.70;23.00;;;;;;;9.05;91.76;99818.67;103265;1305;22588;-68
2022/10/15 04:04:37;;;;;;;52.70;23.40;;;;;;;9.05;91.55;99819.20;103160;1306;25379;-65
2022/10/15 04:07:08;;;;;;;48.70;24.20;;;;;;;9.05;91.63;99811.24;103332;1282;24429;-67
2022/10/15 04:09:40;;;;;;;48.50;23.00;;;;;;;9.06;92.12;99810.19;103381;1274;22537;-67
2022/10/15 04:12:12;;;;;;;45.80;22.50;;;;;;;9.05;92.11;99809.60;103341;1283;22462;-66
2022/10/15 04:14:44;;;;;;;46.40;21.60;;;;;;;9.05;92.16;99812.85;103436;1306;24378;-66
2022/10/15 04:17:15;;;;;;;47.70;23.10;;;;;;;9.06;92.18;99815.60;103394;1282;22643;-66
2022/10/15 04:19:47;;;;;;;48.30;23.50;;;;;;;9.07;92.06;99815.21;103456;1306;22428;-66
2022/10/15 04:22:18;;;;;;;47.60;21.20;;;;;;;9.09;92.03;99812.58;103192;1283;22472;-65
2022/10/15 04:24:50;;;;;;;42.20;22.70;;;;;;;9.10;92.07;99811.32;103464;1282;22537;-66
2022/10/15 04:27:21;;;;;;;45.20;22.10;;;;;;;9.10;92.00;99810.27;103506;1289;22698;-65
2022/10/15 04:29:53;;;;;;;49.20;22.20;;;;;;;9.11;91.90;99804.46;103402;1275;23219;-65
2022/10/15 04:32:25;;;;;;;50.30;23.00;;;;;;;9.12;92.08;99797.74;103423;1282;22490;-64
2022/10/15 04:34:57;;;;;;;52.00;23.10;;;;;;;9.13;92.02;99793.45;103309;1306;22675;-66
2022/10/15 04:37:28;;;;;;;51.90;23.20;;;;;;;9.13;92.16;99790.86;103449;1282;22465;-65
2022/10/15 04:39:59;;;;;;;44.50;22.60;;;;;;;9.12;92.20;99795.67;103269;1284;24218;-66
2022/10/15 04:42:32;;;;;;;51.80;23.70;;;;;;;9.13;92.25;99795.59;103412;1283;25278;-65
2022/10/15 04:45:03;;;;;;;54.00;23.80;;;;;;;9.13;92.40;99798.23;103467;1306;22837;-65
2022/10/15 04:47:35;;;;;;;48.40;23.20;;;;;;;9.13;92.14;99801.10;103260;1282;25228;-66
2022/10/15 04:50:08;;;;;;;51.60;21.10;;;;;;;9.15;92.42;99799.41;103056;1305;24347;-65
2022/10/15 04:52:39;;;;;;;45.90;21.70;;;;;;;9.16;92.47;99800.05;103098;1282;24320;-65
2022/10/15 04:55:11;;;;;;;42.20;20.30;;;;;;;9.19;92.59;99798.00;102874;1291;22486;-65
2022/10/15 04:57:43;;;;;;;41.90;21.80;;;;;;;9.21;92.63;99795.92;102931;1283;22532;-66
2022/10/15 05:00:16;;;;;;;44.10;22.90;;;;;;;9.23;92.74;99797.02;103157;1282;25347;-66
2022/10/15 05:02:48;;;;;;;43.80;21.20;;;;;;;9.24;92.82;99796.54;103051;1291;25222;-66
2022/10/15 05:05:19;;;;;;;48.80;23.00;;;;;;;9.26;93.13;99795.80;103096;1275;22470;-65
2022/10/15 05:07:50;;;;;;;44.30;21.20;;;;;;;9.27;93.19;99799.06;103548;1304;22644;-66
2022/10/15 05:10:22;;;;;;;51.20;22.00;;;;;;;9.28;93.31;99795.84;103118;1281;22581;-66
2022/10/15 05:12:54;;;;;;;46.10;21.70;;;;;;;9.30;93.52;99799.97;103057;1278;27730;-65
2022/10/15 05:15:27;;;;;;;45.70;21.70;;;;;;;9.32;93.55;99806.04;102974;1274;24404;-65
2022/10/15 05:17:58;;;;;;;47.30;21.00;;;;;;;9.33;93.61;99803.47;103091;1275;22478;-66
2022/10/15 05:20:30;;;;;;;46.50;20.90;;;;;;;9.36;93.77;99803.11;103055;1281;22587;-65
2022/10/15 05:23:03;;;;;;;43.40;20.90;;;;;;;9.38;93.62;99796.38;103011;1306;22593;-67
2022/10/15 05:25:34;;;;;;;45.80;20.50;;;;;;;9.40;93.74;99799.95;103056;1282;22597;-66
2022/10/15 05:28:06;;;;;;;42.50;20.90;;;;;;;9.42;94.07;99798.86;103132;1285;25231;-65
2022/10/15 05:30:39;;;;;;;43.70;21.20;;;;;;;9.44;94.27;99803.95;103116;1282;25316;-66
2022/10/15 05:33:11;;;;;;;40.70;19.70;;;;;;;9.45;93.77;99798.21;103055;1282;25398;-66
2022/10/15 05:35:43;;;;;;;49.00;23.70;;;;;;;9.48;93.96;99793.69;102874;1278;22714;-66
2022/10/15 05:38:14;;;;;;;47.20;23.90;;;;;;;9.50;94.20;99784.50;103026;1282;24469;-66
2022/10/15 05:40:51;;;;;;;52.00;22.80;;;;;;;9.52;94.27;99780.95;103170;1306;22575;-66
2022/10/15 05:43:22;;;;;;;50.10;22.80;;;;;;;9.54;94.32;99783.70;103028;1306;24457;-68
2022/10/15 05:45:57;;;;;;;49.90;24.10;;;;;;;9.57;94.46;99785.94;103023;1283;22475;-66
2022/10/15 05:48:28;;;;;;;41.40;21.40;;;;;;;9.60;94.67;99780.11;106844;1277;22214;-66
2022/10/15 05:51:04;;;;;;;47.60;22.30;;;;;;;9.62;94.46;99772.43;104391;1283;25239;-66
2022/10/15 05:53:36;;;;;;;48.40;21.90;;;;;;;9.65;94.53;99769.23;102977;1282;22558;-66
2022/10/15 05:56:09;;;;;;;48.40;24.90;;;;;;;9.68;94.59;99768.63;102964;1277;24265;-66
2022/10/15 05:58:40;;;;;;;51.50;23.30;;;;;;;9.70;94.99;99772.83;103054;1306;26527;-66
2022/10/15 06:01:12;;;;;;;54.40;25.50;;;;;;;9.74;95.21;99773.67;103075;1306;22465;-66
2022/10/15 06:03:44;;;;;;;54.90;24.00;;;;;;;9.76;95.00;99779.29;103266;1306;24287;-65
2022/10/15 06:06:21;;;;;;;49.40;23.00;;;;;;;9.79;94.95;99779.73;103041;1275;23640;-66
2022/10/15 06:08:53;;;;;;;50.60;23.10;;;;;;;9.83;95.05;99780.85;102961;1306;25348;-66
2022/10/15 06:11:25;;;;;;;51.40;22.80;;;;;;;9.87;95.54;99778.12;102832;1279;22461;-66
2022/10/15 06:13:56;;;;;;;52.50;24.20;;;;;;;9.89;95.67;99782.98;103076;1289;26616;-66
2022/10/15 06:16:28;;;;;;;50.10;22.40;;;;;;;9.92;95.92;99789.80;103206;1282;23955;-65
2022/10/15 06:19:00;;;;;;;49.20;23.60;;;;;;;9.96;95.99;99795.29;103253;1306;25279;-67
2022/10/15 06:21:33;;;;;;;49.10;23.20;;;;;;;10.00;96.20;99802.55;103068;1278;25363;-67
2022/10/15 06:24:05;;;;;;;51.70;21.10;;;;;;;10.04;96.37;99803.26;103385;1281;25627;-66
2022/10/15 06:26:37;;;;;;;52.40;25.80;;;;;;;10.08;96.39;99798.34;103313;1281;22509;-66
2022/10/15 06:29:09;;;;;;;51.80;24.90;;;;;;;10.12;96.64;99797.73;103190;1278;24337;-65
2022/10/15 06:31:41;;;;;;;55.80;26.30;;;;;;;10.16;96.48;99798.34;103083;1304;27788;-66
2022/10/15 06:34:13;;;;;;;54.20;25.50;;;;;;;10.21;96.69;99805.14;103112;1281;25352;-66
2022/10/15 06:36:44;;;;;;;57.10;25.90;;;;;;;10.25;96.88;99802.41;103430;1275;23882;-65
2022/10/15 06:39:16;;;;;;;55.10;26.50;;;;;;;10.30;96.67;99803.99;103014;1282;22567;-68
2022/10/15 06:41:50;;;;;;;58.00;26.60;;;;;;;10.35;97.03;99806.14;103096;1278;22460;-66
2022/10/15 06:44:21;;;;;;;55.50;25.50;;;;;;;10.40;97.20;99804.48;103292;1284;22462;-66
2022/10/15 06:46:55;;;;;;;53.10;26.40;;;;;;;10.45;96.89;99807.94;103012;1306;22582;-67
2022/10/15 06:49:27;;;;;;;62.60;26.00;;;;;;;10.50;97.06;99810.75;103448;1274;22466;-66
2022/10/15 06:52:00;;;;;;;56.20;26.20;;;;;;;10.55;97.34;99815.42;102881;1306;261898;-66
2022/10/15 06:54:31;;;;;;;59.60;28.50;;;;;;;10.60;97.33;99818.32;103101;1274;22469;-66
2022/10/15 06:57:04;;;;;;;57.30;27.90;;;;;;;10.64;97.24;99817.95;103365;1282;22677;-66
2022/10/15 06:59:35;;;;;;;53.10;27.10;;;;;;;10.67;97.18;99820.29;103128;1282;22461;-66
2022/10/15 07:02:07;;;;;;;51.30;25.50;;;;;;;10.71;97.07;99825.41;103093;1291;22461;-66
2022/10/15 07:04:39;;;;;;;59.50;29.00;;;;;;;10.74;97.24;99823.71;103077;1306;22510;-67
2022/10/15 07:07:11;;;;;;;61.80;30.70;;;;;;;10.76;97.13;99823.39;103233;1278;22435;-66
2022/10/15 07:09:45;;;;;;;58.10;28.30;;;;;;;10.79;97.23;99828.34;103218;1282;24618;-66
2022/10/15 07:12:17;;;;;;;67.60;32.30;;;;;;;10.81;97.15;99825.02;103187;1282;22600;-66
2022/10/15 07:14:49;;;;;;;62.90;28.70;;;;;;;10.83;97.25;99831.90;103344;1274;22438;-66
2022/10/15 07:17:20;;;;;;;61.50;31.90;;;;;;;10.87;97.34;99835.03;103424;1275;24065;-68
2022/10/15 07:19:52;;;;;;;61.30;30.80;;;;;;;10.91;97.57;99834.63;103342;1282;22470;-67
2022/10/15 07:22:24;;;;;;;65.50;31.60;;;;;;;10.97;97.81;99837.48;103415;1282;22475;-67
2022/10/15 07:24:56;;;;;;;65.50;33.20;;;;;;;11.02;97.89;99839.11;103301;1281;22471;-66
2022/10/15 07:27:27;;;;;;;59.00;30.30;;;;;;;11.08;97.85;99838.42;103519;1282;25415;-66
2022/10/15 07:30:01;;;;;;;57.20;27.70;;;;;;;11.16;98.03;99844.39;103099;1280;22664;-66
2022/10/15 07:32:32;;;;;;;64.20;31.10;;;;;;;11.23;98.23;99848.12;103335;1282;23317;-67
2022/10/15 07:35:04;;;;;;;65.10;33.40;;;;;;;11.30;98.19;99855.86;103258;1294;26587;-66
2022/10/15 07:37:37;;;;;;;58.10;30.30;;;;;;;11.36;98.01;99856.48;103290;1277;25481;-66
2022/10/15 07:40:10;;;;;;;60.90;31.40;;;;;;;11.44;98.08;99858.94;103323;1279;22535;-66
2022/10/15 07:42:43;;;;;;;70.40;32.80;;;;;;;11.51;98.08;99861.14;103318;1285;25462;-67
2022/10/15 07:45:16;;;;;;;56.60;30.30;;;;;;;11.59;98.44;99858.73;103377;1282;22498;-68
2022/10/15 07:47:48;;;;;;;56.10;27.60;;;;;;;11.68;98.30;99857.09;103267;1284;23035;-67
2022/10/15 07:50:20;;;;;;;63.50;33.40;;;;;;;11.75;98.18;99857.72;103535;1275;22612;-67
2022/10/15 07:52:51;;;;;;;64.20;31.30;;;;;;;11.83;98.34;99855.55;103243;1298;22924;-66
2022/10/15 07:55:23;;;;;;;66.90;32.40;;;;;;;11.91;98.38;99855.80;103211;1282;24932;-67
2022/10/15 07:57:58;;;;;;;67.70;32.50;;;;;;;12.00;98.41;99852.77;103313;1285;25396;-66
2022/10/15 08:00:29;;;;;;;62.80;33.40;;;;;;;12.09;98.37;99858.12;103230;1280;24368;-66
2022/10/15 08:03:01;;;;;;;60.10;30.70;;;;;;;12.19;98.41;99855.84;103368;1285;22523;-67
2022/10/15 08:05:33;;;;;;;59.00;30.80;;;;;;;12.28;98.63;99857.63;103190;1300;25264;-66
2022/10/15 08:08:04;;;;;;;62.50;30.70;;;;;;;12.38;98.25;99854.42;103380;1306;22490;-67
2022/10/15 08:10:37;;;;;;;65.90;31.90;;;;;;;12.48;98.41;99854.48;103390;1304;24354;-67
2022/10/15 08:13:08;;;;;;;60.70;29.50;;;;;;;12.58;98.59;99852.29;103309;1279;24410;-67
2022/10/15 08:15:42;;;;;;;62.50;32.30;;;;;;;12.66;98.38;99847.64;103417;1292;25592;-66
2022/10/15 08:18:14;;;;;;;61.50;32.90;;;;;;;12.74;98.30;99853.84;103348;1306;25872;-67
2022/10/15 08:20:45;;;;;;;56.50;29.40;;;;;;;12.83;98.34;99851.47;103355;1291;24621;-67
2022/10/15 08:23:17;;;;;;;58.60;29.50;;;;;;;12.91;98.07;99846.57;103375;1284;24406;-67
2022/10/15 08:25:49;;;;;;;49.60;24.40;;;;;;;12.99;98.08;99847.77;103472;1291;22476;-67
2022/10/15 08:28:20;;;;;;;55.70;28.80;;;;;;;13.08;97.83;99849.85;103381;1278;22483;-67
2022/10/15 08:30:52;;;;;;;48.50;25.70;;;;;;;13.16;97.78;99854.00;103387;1282;23700;-67
2022/10/15 08:33:24;;;;;;;54.00;27.00;;;;;;;13.24;97.54;99854.53;103529;1306;22600;-68
2022/10/15 08:35:56;;;;;;;51.30;26.80;;;;;;;13.33;97.59;99856.39;103369;1275;22470;-67
2022/10/15 08:38:30;;;;;;;55.70;26.80;;;;;;;13.41;97.20;99856.59;103424;1278;22464;-67
2022/10/15 08:41:02;;;;;;;53.90;26.80;;;;;;;13.49;96.97;99853.45;103661;1306;22488;-67
2022/10/15 08:43:38;;;;;;;54.70;25.40;;;;;;;13.56;96.86;99856.00;103461;1298;26632;-67
2022/10/15 08:46:16;;;;;;;50.20;25.60;;;;;;;13.62;96.51;99857.59;103450;1284;22735;-68
2022/10/15 08:48:51;;;;;;;44.70;24.50;;;;;;;13.68;96.30;99860.19;103319;1298;25339;-67
2022/10/15 08:51:24;;;;;;;47.50;25.40;;;;;;;13.74;96.35;99864.42;103310;1306;22923;-68
2022/10/15 08:53:58;;;;;;;46.80;24.60;;;;;;;13.81;96.22;99873.91;103916;1274;22479;-67
2022/10/15 08:56:35;;;;;;;47.00;24.20;;;;;;;13.88;96.23;99874.48;103340;1282;22540;-68
2022/10/15 08:59:16;;;;;;;45.00;22.60;;;;;;;13.94;95.81;99870.65;103533;1282;25177;-68
2022/10/15 09:01:53;;;;;;;41.70;21.70;;;;;;;14.00;95.54;99873.95;103349;1306;22734;-68
2022/10/15 09:04:32;;;;;;;45.00;23.10;;;;;;;14.05;95.15;99876.45;103356;1306;22518;-68
2022/10/15 09:07:14;;;;;;;41.80;21.50;;;;;;;14.10;95.41;99873.08;103579;1277;24416;-68
2022/10/15 09:09:51;;;;;;;43.40;21.80;;;;;;;14.13;95.18;99869.25;103323;1284;24247;-68
2022/10/15 09:12:39;;;;;;;42.60;22.90;;;;;;;14.13;95.30;99869.45;103404;1285;22497;-68
2022/10/15 09:15:16;;;;;;;42.40;22.10;;;;;;;14.14;95.54;99868.63;103352;1285;25925;-67
2022/10/15 09:17:50;;;;;;;46.60;23.90;;;;;;;14.14;95.61;99869.85;103642;1306;22488;-67
2022/10/15 09:20:25;;;;;;;50.40;26.70;;;;;;;14.15;95.72;99871.90;103348;1285;25303;-67
2022/10/15 09:22:58;;;;;;;49.30;26.50;;;;;;;14.16;95.99;99871.48;103517;1306;22618;-66
2022/10/15 09:25:35;;;;;;;53.80;27.40;;;;;;;14.17;96.10;99872.66;103609;1278;24842;-67
2022/10/15 09:28:11;;;;;;;46.50;25.60;;;;;;;14.18;96.02;99876.44;103548;1305;23832;-68
2022/10/15 09:30:47;;;;;;;44.70;25.10;;;;;;;14.19;96.05;99873.94;103378;1278;24258;-68
2022/10/15 09:33:31;;;;;;;43.60;22.20;;;;;;;14.19;96.26;99879.20;103469;1282;26802;-68
2022/10/15 09:36:15;;;;;;;48.60;25.20;;;;;;;14.21;96.55;99884.45;103188;1282;22551;-70
2022/10/15 09:38:54;;;;;;;47.40;24.50;;;;;;;14.22;96.95;99882.36;103121;1277;22510;-66
2022/10/15 09:41:36;;;;;;;49.20;22.90;;;;;;;14.23;96.83;99884.50;102945;1278;22711;-65
2022/10/15 09:44:14;;;;;;;42.80;20.70;;;;;;;14.25;96.89;99886.27;102868;1285;25282;-65
2022/10/15 09:46:50;;;;;;;43.80;22.20;;;;;;;14.28;97.12;99883.27;103114;1291;22872;-66
2022/10/15 09:49:26;;;;;;;45.60;22.10;;;;;;;14.31;97.19;99882.58;103151;1282;22595;-66
2022/10/15 09:52:07;;;;;;;42.00;20.90;;;;;;;14.34;97.19;99875.77;103217;1278;22990;-65
2022/10/15 09:54:49;;;;;;;38.10;20.90;;;;;;;14.37;97.06;99876.69;103142;1306;24361;-65
2022/10/15 09:57:23;;;;;;;42.60;21.70;;;;;;;14.41;97.12;99877.86;103079;1290;22467;-65
2022/10/15 10:00:00;;;;;;;39.40;19.50;;;;;;;14.45;97.11;99888.37;103116;1301;22501;-65
2022/10/15 10:02:32;;;;;;;39.20;19.40;;;;;;;14.50;97.15;99888.14;103579;1291;22468;-66
2022/10/15 10:05:30;;;;;;;39.80;19.90;;;;;;;14.55;96.93;99890.48;103264;1277;23882;-66
2022/10/15 10:08:17;;;;;;;37.20;19.40;;;;;;;14.59;96.85;99894.10;103440;1282;25991;-66
2022/10/15 10:10:57;;;;;;;39.60;20.40;;;;;;;14.65;96.69;99895.01;103774;1306;22708;-66
2022/10/15 10:13:32;;;;;;;43.00;21.90;;;;;;;14.70;96.49;99896.16;103279;1282;22591;-66
2022/10/15 10:16:09;;;;;;;43.40;21.40;;;;;;;14.74;96.33;99898.95;103169;1277;22475;-66
2022/10/15 10:18:49;;;;;;;43.40;21.80;;;;;;;14.79;96.86;99900.17;103345;1281;24294;-70
2022/10/15 10:21:30;;;;;;;45.40;23.80;;;;;;;14.86;97.01;99899.98;103341;1282;22481;-66
2022/10/15 10:24:27;;;;;;;45.40;23.80;;;;;;;14.92;97.19;99899.81;103129;1281;25644;-66
2022/10/15 10:27:02;;;;;;;38.70;21.90;;;;;;;14.99;96.82;99898.95;103313;1298;22464;-66
2022/10/15 10:29:39;;;;;;;41.10;21.40;;;;;;;15.03;96.47;99900.16;102869;1274;22482;-66
2022/10/15 10:32:22;;;;;;;38.20;20.80;;;;;;;15.06;96.20;99895.60;102926;1285;24260;-67
2022/10/15 10:34:54;;;;;;;36.40;18.50;;;;;;;15.07;95.74;99900.57;103077;1274;22601;-67
2022/10/15 10:37:25;;;;;;;34.40;17.40;;;;;;;15.09;95.65;99898.27;105441;1277;22599;-67
2022/10/15 10:39:59;;;;;;;33.30;18.30;;;;;;;15.12;95.51;99896.31;103288;1281;23369;-67
2022/10/15 10:42:37;;;;;;;38.00;18.10;;;;;;;15.14;95.54;99895.42;103448;1291;25392;-67
2022/10/15 10:45:21;;;;;;;31.70;15.60;;;;;;;15.17;95.29;99891.31;103300;1285;25421;-67
2022/10/15 10:47:52;;;;;;;32.50;16.40;;;;;;;15.20;94.90;99894.06;103116;1299;25670;-67
2022/10/15 10:50:36;;;;;;;29.50;14.60;;;;;;;15.24;94.85;99890.10;103086;1277;23952;-67
2022/10/15 10:53:20;;;;;;;30.90;14.60;;;;;;;15.31;95.03;99892.77;103241;1292;22465;-67
2022/10/15 10:55:55;;;;;;;25.10;13.20;;;;;;;15.38;94.80;99892.21;103299;1306;24087;-67
2022/10/15 10:58:33;;;;;;;28.90;13.20;;;;;;;15.46;94.68;99895.07;103178;1275;25487;-66
2022/10/15 11:01:06;;;;;;;24.40;12.70;;;;;;;15.52;94.24;99896.04;103146;1306;24265;-67
2022/10/15 11:03:40;;;;;;;23.30;12.00;;;;;;;15.59;94.05;99893.39;103229;1306;25332;-67
2022/10/15 11:06:39;;;;;;;26.80;12.70;;;;;;;15.65;93.83;99890.64;106725;1280;22290;-68
2022/10/15 11:09:38;;;;;;;23.60;10.80;;;;;;;15.74;93.26;99887.35;103087;1310;26564;-67
2022/10/15 11:12:25;;;;;;;22.40;11.30;;;;;;;15.80;92.48;99887.23;102999;1289;25397;-66
2022/10/15 11:15:05;;;;;;;23.80;11.60;;;;;;;15.84;91.93;99884.61;102865;1302;22555;-67
2022/10/15 11:17:47;;;;;;;22.60;11.40;;;;;;;15.86;91.67;99879.73;102841;1305;22720;-66
2022/10/15 11:20:27;;;;;;;23.20;10.40;;;;;;;15.92;92.11;99877.89;103043;1288;22482;-65
2022/10/15 11:23:11;;;;;;;22.70;10.60;;;;;;;15.98;91.58;99880.04;103316;1304;24366;-67
2022/10/15 11:25:55;;;;;;;23.50;10.30;;;;;;;16.03;90.92;99877.64;102999;1287;22478;-66
2022/10/15 11:28:40;;;;;;;23.50;11.20;;;;;;;16.05;89.96;99867.59;103339;1288;22524;-67
2022/10/15 11:31:19;;;;;;;23.90;11.00;;;;;;;16.05;89.58;99861.70;102910;1288;22615;-67
2022/10/15 11:34:09;;;;;;;22.40;10.70;;;;;;;16.05;89.40;99862.38;102852;1288;22469;-66
2022/10/15 11:36:54;;;;;;;20.40;9.40;;;;;;;16.05;89.50;99861.19;102965;1297;22480;-67
2022/10/15 11:39:46;;;;;;;23.10;11.80;;;;;;;16.05;89.41;99859.19;102998;1287;26629;-66
2022/10/15 11:42:24;;;;;;;20.80;10.00;;;;;;;16.07;89.21;99850.01;102921;1288;25962;-66
2022/10/15 11:45:26;;;;;;;20.20;10.40;;;;;;;16.07;88.63;99854.61;103234;1294;23245;-66
2022/10/15 11:48:05;;;;;;;23.90;12.00;;;;;;;16.09;88.73;99850.75;103115;1282;22486;-66